sensor_id;sensor_type;location;lat;lon;timestamp;pressure;altitude;pressure_sealevel;temperature;humidity
23176;BME280;19910;42.652;23.332;2023-12-20T00:01:36;94990.59;;;0.90;100.00
23176;BME280;19910;42.652;23.332;2023-12-20T00:04:03;94986.81;;;0.81;100.00
23176;BME280;19910;42.652;23.332;2023-12-20T00:06:30;94989.00;;;0.89;100.00
23176;BME280;19910;42.652;23.332;2023-12-20T00:08:57;94980.47;;;0.97;100.00
23176;BME280;19910;42.652;23.332;2023-12-20T00:11:25;94976.22;;;0.96;100.00
23176;BME280;19910;42.652;23.332;2023-12-20T00:13:52;94976.75;;;0.98;100.00
23176;BME280;19910;42.652;23.332;2023-12-20T00:16:19;94981.03;;;0.99;100.00
23176;BME280;19910;42.652;23.332;2023-12-20T00:18:46;94977.31;;;0.95;100.00
23176;BME280;19910;42.652;23.332;2023-12-20T00:21:13;94975.75;;;1.04;100.00
23176;BME280;19910;42.652;23.332;2023-12-20T00:23:40;94960.75;;;0.93;100.00
23176;BME280;19910;42.652;23.332;2023-12-20T00:26:06;94963.44;;;0.98;100.00
23176;BME280;19910;42.652;23.332;2023-12-20T00:28:35;94965.03;;;0.94;100.00
23176;BME280;19910;42.652;23.332;2023-12-20T00:31:01;94961.34;;;1.05;100.00
23176;BME280;19910;42.652;23.332;2023-12-20T00:33:28;94953.34;;;1.05;100.00
23176;BME280;19910;42.652;23.332;2023-12-20T00:35:55;94956.19;;;0.88;100.00
23176;BME280;19910;42.652;23.332;2023-12-20T00:38:22;94948.94;;;0.79;100.00
23176;BME280;19910;42.652;23.332;2023-12-20T00:40:49;94949.28;;;0.92;100.00
23176;BME280;19910;42.652;23.332;2023-12-20T00:43:16;94943.09;;;0.87;100.00
23176;BME280;19910;42.652;23.332;2023-12-20T00:45:44;94940.69;;;0.85;100.00
23176;BME280;19910;42.652;23.332;2023-12-20T00:48:11;94936.69;;;0.83;100.00
23176;BME280;19910;42.652;23.332;2023-12-20T00:50:38;94927.09;;;0.87;100.00
23176;BME280;19910;42.652;23.332;2023-12-20T00:53:05;94935.16;;;0.92;100.00
23176;BME280;19910;42.652;23.332;2023-12-20T00:55:32;94935.16;;;0.92;100.00
23176;BME280;19910;42.652;23.332;2023-12-20T00:57:59;94935.09;;;0.82;100.00
23176;BME280;19910;42.652;23.332;2023-12-20T01:00:26;94935.63;;;0.84;100.00
23176;BME280;19910;42.652;23.332;2023-12-20T01:02:54;94923.84;;;0.75;100.00
23176;BME280;19910;42.652;23.332;2023-12-20T01:05:21;94919.88;;;0.77;100.00
23176;BME280;19910;42.652;23.332;2023-12-20T01:07:49;94924.88;;;0.68;100.00
23176;BME280;19910;42.652;23.332;2023-12-20T01:10:18;94914.25;;;0.74;100.00
23176;BME280;19910;42.652;23.332;2023-12-20T01:12:45;94912.16;;;0.81;100.00
23176;BME280;19910;42.652;23.332;2023-12-20T01:15:12;94908.47;;;0.92;100.00
23176;BME280;19910;42.652;23.332;2023-12-20T01:17:39;94906.28;;;0.84;100.00
23176;BME280;19910;42.652;23.332;2023-12-20T01:20:08;94903.63;;;0.79;100.00
23176;BME280;19910;42.652;23.332;2023-12-20T01:22:35;94904.13;;;0.76;100.00
23176;BME280;19910;42.652;23.332;2023-12-20T01:25:02;94895.38;;;0.85;100.00
23176;BME280;19910;42.652;23.332;2023-12-20T01:27:29;94894.88;;;0.93;100.00
23176;BME280;19910;42.652;23.332;2023-12-20T01:29:56;94888.75;;;0.93;100.00
23176;BME280;19910;42.652;23.332;2023-12-20T01:32:23;94886.59;;;0.90;100.00
23176;BME280;19910;42.652;23.332;2023-12-20T01:34:50;94887.94;;;0.92;100.00
23176;BME280;19910;42.652;23.332;2023-12-20T01:37:18;94879.91;;;0.87;100.00
23176;BME280;19910;42.652;23.332;2023-12-20T01:39:45;94880.97;;;0.81;100.00
23176;BME280;19910;42.652;23.332;2023-12-20T01:42:11;94879.03;;;0.66;100.00
23176;BME280;19910;42.652;23.332;2023-12-20T01:44:38;94867.78;;;0.59;100.00
23176;BME280;19910;42.652;23.332;2023-12-20T01:47:05;94874.41;;;0.47;100.00
23176;BME280;19910;42.652;23.332;2023-12-20T01:49:32;94865.34;;;0.48;100.00
23176;BME280;19910;42.652;23.332;2023-12-20T01:51:59;94860.56;;;0.55;100.00
23176;BME280;19910;42.652;23.332;2023-12-20T01:54:28;94850.25;;;0.74;100.00
23176;BME280;19910;42.652;23.332;2023-12-20T01:56:55;94850.78;;;0.65;100.00
23176;BME280;19910;42.652;23.332;2023-12-20T01:59:22;94848.59;;;0.57;100.00
23176;BME280;19910;42.652;23.332;2023-12-20T02:01:48;94851.72;;;0.39;100.00
23176;BME280;19910;42.652;23.332;2023-12-20T02:04:16;94854.28;;;0.24;100.00
23176;BME280;19910;42.652;23.332;2023-12-20T02:06:43;94848.97;;;0.24;100.00
23176;BME280;19910;42.652;23.332;2023-12-20T02:09:12;94844.44;;;0.29;100.00
23176;BME280;19910;42.652;23.332;2023-12-20T02:11:41;94843.13;;;0.27;100.00
23176;BME280;19910;42.652;23.332;2023-12-20T02:14:08;94836.44;;;0.24;100.00
23176;BME280;19910;42.652;23.332;2023-12-20T02:16:35;94839.91;;;0.25;100.00
23176;BME280;19910;42.652;23.332;2023-12-20T02:19:03;94831.06;;;0.19;100.00
23176;BME280;19910;42.652;23.332;2023-12-20T02:21:33;94825.94;;;0.08;100.00
23176;BME280;19910;42.652;23.332;2023-12-20T02:24:01;94830.78;;;0.16;100.00
23176;BME280;19910;42.652;23.332;2023-12-20T02:26:27;94827.91;;;0.27;100.00
23176;BME280;19910;42.652;23.332;2023-12-20T02:28:54;94822.47;;;0.07;100.00
23176;BME280;19910;42.652;23.332;2023-12-20T02:31:21;94830.31;;;0.29;100.00
23176;BME280;19910;42.652;23.332;2023-12-20T02:33:48;94813.28;;;0.25;100.00
23176;BME280;19910;42.652;23.332;2023-12-20T02:36:15;94812.75;;;0.28;100.00
23176;BME280;19910;42.652;23.332;2023-12-20T02:38:43;94808.53;;;0.42;100.00
23176;BME280;19910;42.652;23.332;2023-12-20T02:41:10;94801.06;;;0.34;100.00
23176;BME280;19910;42.652;23.332;2023-12-20T02:43:37;94793.50;;;0.16;100.00
23176;BME280;19910;42.652;23.332;2023-12-20T02:46:04;94798.31;;;0.19;100.00
23176;BME280;19910;42.652;23.332;2023-12-20T02:48:30;94799.97;;;0.30;100.00
23176;BME280;19910;42.652;23.332;2023-12-20T02:50:57;94807.94;;;0.25;100.00
23176;BME280;19910;42.652;23.332;2023-12-20T02:53:24;94806.81;;;0.11;100.00
23176;BME280;19910;42.652;23.332;2023-12-20T02:55:52;94797.66;;;-0.04;100.00
23176;BME280;19910;42.652;23.332;2023-12-20T02:58:19;94809.88;;;-0.08;100.00
23176;BME280;19910;42.652;23.332;2023-12-20T03:00:46;94805.19;;;0.10;100.00
23176;BME280;19910;42.652;23.332;2023-12-20T03:03:12;94805.28;;;0.30;100.00
23176;BME280;19910;42.652;23.332;2023-12-20T03:05:39;94800.56;;;0.37;100.00
23176;BME280;19910;42.652;23.332;2023-12-20T03:08:06;94801.59;;;0.41;100.00
23176;BME280;19910;42.652;23.332;2023-12-20T03:10:33;94792.53;;;0.32;100.00
23176;BME280;19910;42.652;23.332;2023-12-20T03:13:01;94789.88;;;0.37;100.00
23176;BME280;19910;42.652;23.332;2023-12-20T03:15:28;94799.16;;;0.29;100.00
23176;BME280;19910;42.652;23.332;2023-12-20T03:17:55;94798.81;;;0.16;100.00
23176;BME280;19910;42.652;23.332;2023-12-20T03:20:21;94799.69;;;0.26;100.00
23176;BME280;19910;42.652;23.332;2023-12-20T03:22:48;94790.94;;;0.36;100.00
23176;BME280;19910;42.652;23.332;2023-12-20T03:25:15;94799.28;;;0.50;100.00
23176;BME280;19910;42.652;23.332;2023-12-20T03:27:42;94786.97;;;0.39;100.00
23176;BME280;19910;42.652;23.332;2023-12-20T03:30:11;94770.13;;;0.28;100.00
23176;BME280;19910;42.652;23.332;2023-12-20T03:32:38;94781.63;;;0.39;100.00
23176;BME280;19910;42.652;23.332;2023-12-20T03:35:05;94784.19;;;0.13;100.00
23176;BME280;19910;42.652;23.332;2023-12-20T03:37:32;94784.41;;;0.07;100.00
23176;BME280;19910;42.652;23.332;2023-12-20T03:39:59;94787.56;;;0.04;100.00
23176;BME280;19910;42.652;23.332;2023-12-20T03:42:26;94783.25;;;-0.08;100.00
23176;BME280;19910;42.652;23.332;2023-12-20T03:44:53;94784.34;;;-0.04;100.00
23176;BME280;19910;42.652;23.332;2023-12-20T03:47:21;94783.84;;;-0.01;100.00
23176;BME280;19910;42.652;23.332;2023-12-20T03:49:48;94779.63;;;0.14;100.00
23176;BME280;19910;42.652;23.332;2023-12-20T03:52:14;94776.44;;;0.12;100.00
23176;BME280;19910;42.652;23.332;2023-12-20T03:54:41;94778.72;;;-0.07;100.00
23176;BME280;19910;42.652;23.332;2023-12-20T03:57:08;94777.41;;;-0.05;100.00
23176;BME280;19910;42.652;23.332;2023-12-20T03:59:36;94777.88;;;-0.18;100.00
23176;BME280;19910;42.652;23.332;2023-12-20T04:02:04;94772.09;;;0.00;100.00
23176;BME280;19910;42.652;23.332;2023-12-20T04:04:32;94767.91;;;0.10;100.00
23176;BME280;19910;42.652;23.332;2023-12-20T04:06:59;94766.31;;;0.09;100.00
23176;BME280;19910;42.652;23.332;2023-12-20T04:09:25;94764.50;;;0.19;100.00
23176;BME280;19910;42.652;23.332;2023-12-20T04:11:52;94745.06;;;0.19;100.00
23176;BME280;19910;42.652;23.332;2023-12-20T04:14:19;94744.22;;;1.87;100.00
23176;BME280;19910;42.652;23.332;2023-12-20T04:16:46;94737.56;;;4.00;100.00
23176;BME280;19910;42.652;23.332;2023-12-20T04:19:13;94738.16;;;2.41;100.00
23176;BME280;19910;42.652;23.332;2023-12-20T04:21:41;94745.84;;;1.48;100.00
23176;BME280;19910;42.652;23.332;2023-12-20T04:24:08;94743.19;;;1.22;100.00
23176;BME280;19910;42.652;23.332;2023-12-20T04:26:34;94739.91;;;0.75;100.00
23176;BME280;19910;42.652;23.332;2023-12-20T04:29:01;94735.03;;;0.46;100.00
23176;BME280;19910;42.652;23.332;2023-12-20T04:31:28;94743.25;;;0.34;100.00
23176;BME280;19910;42.652;23.332;2023-12-20T04:33:55;94733.44;;;-0.12;100.00
23176;BME280;19910;42.652;23.332;2023-12-20T04:36:22;94731.06;;;-0.09;100.00
23176;BME280;19910;42.652;23.332;2023-12-20T04:38:51;94728.91;;;-0.17;100.00
23176;BME280;19910;42.652;23.332;2023-12-20T04:41:18;94725.69;;;-0.19;100.00
23176;BME280;19910;42.652;23.332;2023-12-20T04:43:45;94725.16;;;-0.21;100.00
23176;BME280;19910;42.652;23.332;2023-12-20T04:46:12;94734.59;;;-0.45;100.00
23176;BME280;19910;42.652;23.332;2023-12-20T04:48:39;94735.94;;;-0.38;100.00
23176;BME280;19910;42.652;23.332;2023-12-20T04:51:05;94729.25;;;-0.45;100.00
23176;BME280;19910;42.652;23.332;2023-12-20T04:53:32;94724.00;;;-0.35;100.00
23176;BME280;19910;42.652;23.332;2023-12-20T04:56:00;94728.41;;;-0.56;100.00
23176;BME280;19910;42.652;23.332;2023-12-20T04:58:27;94727.22;;;-0.70;100.00
23176;BME280;19910;42.652;23.332;2023-12-20T05:00:54;94718.88;;;-0.84;100.00
23176;BME280;19910;42.652;23.332;2023-12-20T05:03:21;94719.56;;;-0.61;100.00
23176;BME280;19910;42.652;23.332;2023-12-20T05:05:48;94721.22;;;-0.55;100.00
23176;BME280;19910;42.652;23.332;2023-12-20T05:08:15;94721.88;;;-0.33;100.00
23176;BME280;19910;42.652;23.332;2023-12-20T05:10:41;94716.53;;;-0.38;100.00
23176;BME280;19910;42.652;23.332;2023-12-20T05:13:09;94717.66;;;-0.29;100.00
23176;BME280;19910;42.652;23.332;2023-12-20T05:15:36;94712.19;;;-0.49;100.00
23176;BME280;19910;42.652;23.332;2023-12-20T05:18:04;94703.44;;;-0.82;100.00
23176;BME280;19910;42.652;23.332;2023-12-20T05:20:30;94717.06;;;-1.10;100.00
23176;BME280;19910;42.652;23.332;2023-12-20T05:22:57;94703.94;;;-0.90;100.00
23176;BME280;19910;42.652;23.332;2023-12-20T05:25:24;94703.56;;;-0.72;100.00
23176;BME280;19910;42.652;23.332;2023-12-20T05:27:51;94708.94;;;-0.61;100.00
23176;BME280;19910;42.652;23.332;2023-12-20T05:30:19;94692.69;;;-1.02;100.00
23176;BME280;19910;42.652;23.332;2023-12-20T05:32:46;94700.94;;;-1.30;100.00
23176;BME280;19910;42.652;23.332;2023-12-20T05:35:13;94700.09;;;-1.04;100.00
23176;BME280;19910;42.652;23.332;2023-12-20T05:37:40;94698.28;;;-0.98;100.00
23176;BME280;19910;42.652;23.332;2023-12-20T05:40:08;94697.44;;;-1.04;100.00
23176;BME280;19910;42.652;23.332;2023-12-20T05:42:36;94697.38;;;-1.09;100.00
23176;BME280;19910;42.652;23.332;2023-12-20T05:45:04;94696.22;;;-1.23;100.00
23176;BME280;19910;42.652;23.332;2023-12-20T05:47:32;94699.81;;;-1.34;100.00
23176;BME280;19910;42.652;23.332;2023-12-20T05:49:59;94684.91;;;-1.40;100.00
23176;BME280;19910;42.652;23.332;2023-12-20T05:52:26;94687.72;;;-1.25;100.00
23176;BME280;19910;42.652;23.332;2023-12-20T05:54:53;94687.38;;;-1.02;100.00
23176;BME280;19910;42.652;23.332;2023-12-20T05:57:21;94686.25;;;-1.06;100.00
23176;BME280;19910;42.652;23.332;2023-12-20T05:59:48;94685.38;;;-1.17;100.00
23176;BME280;19910;42.652;23.332;2023-12-20T06:02:15;94668.06;;;-1.24;100.00
23176;BME280;19910;42.652;23.332;2023-12-20T06:04:44;94676.31;;;-1.48;100.00
23176;BME280;19910;42.652;23.332;2023-12-20T06:07:11;94686.50;;;-1.66;100.00
23176;BME280;19910;42.652;23.332;2023-12-20T06:09:38;94666.22;;;-1.99;100.00
23176;BME280;19910;42.652;23.332;2023-12-20T06:12:09;94674.94;;;-2.04;100.00
23176;BME280;19910;42.652;23.332;2023-12-20T06:14:38;94677.47;;;-1.92;100.00
23176;BME280;19910;42.652;23.332;2023-12-20T06:17:05;94680.50;;;-1.57;100.00
23176;BME280;19910;42.652;23.332;2023-12-20T06:19:32;94684.00;;;-1.51;100.00
23176;BME280;19910;42.652;23.332;2023-12-20T06:22:00;94679.59;;;-1.40;100.00
23176;BME280;19910;42.652;23.332;2023-12-20T06:24:30;94678.94;;;-1.26;100.00
23176;BME280;19910;42.652;23.332;2023-12-20T06:26:59;94691.75;;;-0.86;100.00
23176;BME280;19910;42.652;23.332;2023-12-20T06:29:26;94687.09;;;-0.68;100.00
23176;BME280;19910;42.652;23.332;2023-12-20T06:31:53;94687.22;;;-0.48;100.00
23176;BME280;19910;42.652;23.332;2023-12-20T06:34:20;94683.72;;;-0.91;100.00
23176;BME280;19910;42.652;23.332;2023-12-20T06:36:47;94683.59;;;-0.74;100.00
23176;BME280;19910;42.652;23.332;2023-12-20T06:39:15;94687.28;;;-0.33;100.00
23176;BME280;19910;42.652;23.332;2023-12-20T06:41:42;94671.78;;;-0.88;100.00
23176;BME280;19910;42.652;23.332;2023-12-20T06:44:09;94671.63;;;-0.72;100.00
23176;BME280;19910;42.652;23.332;2023-12-20T06:46:36;94667.78;;;-0.91;100.00
23176;BME280;19910;42.652;23.332;2023-12-20T06:49:03;94660.66;;;-0.38;100.00
23176;BME280;19910;42.652;23.332;2023-12-20T06:51:30;94655.44;;;-0.18;100.00
23176;BME280;19910;42.652;23.332;2023-12-20T06:53:58;94668.06;;;-0.45;100.00
23176;BME280;19910;42.652;23.332;2023-12-20T06:56:29;94662.09;;;-0.10;100.00
23176;BME280;19910;42.652;23.332;2023-12-20T06:58:57;94659.59;;;0.25;100.00
23176;BME280;19910;42.652;23.332;2023-12-20T07:01:24;94653.44;;;0.30;100.00
23176;BME280;19910;42.652;23.332;2023-12-20T07:03:52;94645.34;;;-0.11;100.00
23176;BME280;19910;42.652;23.332;2023-12-20T07:06:20;94647.53;;;0.08;100.00
23176;BME280;19910;42.652;23.332;2023-12-20T07:08:47;94652.44;;;0.51;100.00
23176;BME280;19910;42.652;23.332;2023-12-20T07:11:14;94642.88;;;0.91;100.00
23176;BME280;19910;42.652;23.332;2023-12-20T07:13:42;94652.47;;;1.12;100.00
23176;BME280;19910;42.652;23.332;2023-12-20T07:16:09;94641.31;;;0.95;100.00
23176;BME280;19910;42.652;23.332;2023-12-20T07:18:36;94635.97;;;0.80;100.00
23176;BME280;19910;42.652;23.332;2023-12-20T07:21:03;94633.81;;;0.87;100.00
23176;BME280;19910;42.652;23.332;2023-12-20T07:23:30;94634.34;;;1.04;100.00
23176;BME280;19910;42.652;23.332;2023-12-20T07:25:57;94623.13;;;1.27;100.00
23176;BME280;19910;42.652;23.332;2023-12-20T07:28:24;94625.78;;;1.32;100.00
23176;BME280;19910;42.652;23.332;2023-12-20T07:30:52;94613.44;;;1.52;100.00
23176;BME280;19910;42.652;23.332;2023-12-20T07:33:19;94622.53;;;1.56;99.93
23176;BME280;19910;42.652;23.332;2023-12-20T07:35:47;94622.22;;;1.67;100.00
23176;BME280;19910;42.652;23.332;2023-12-20T07:38:15;94616.34;;;1.70;99.54
23176;BME280;19910;42.652;23.332;2023-12-20T07:40:43;94620.38;;;1.63;100.00
23176;BME280;19910;42.652;23.332;2023-12-20T07:43:10;94623.09;;;1.42;100.00
23176;BME280;19910;42.652;23.332;2023-12-20T07:45:37;94626.59;;;1.23;100.00
23176;BME280;19910;42.652;23.332;2023-12-20T07:48:07;94620.41;;;1.48;100.00
23176;BME280;19910;42.652;23.332;2023-12-20T07:50:34;94621.50;;;1.26;100.00
23176;BME280;19910;42.652;23.332;2023-12-20T07:53:01;94618.34;;;0.99;100.00
23176;BME280;19910;42.652;23.332;2023-12-20T07:55:28;94616.75;;;1.03;100.00
23176;BME280;19910;42.652;23.332;2023-12-20T07:57:55;94623.41;;;1.11;100.00
23176;BME280;19910;42.652;23.332;2023-12-20T08:00:25;94611.63;;;1.32;100.00
23176;BME280;19910;42.652;23.332;2023-12-20T08:02:54;94612.34;;;1.68;100.00
23176;BME280;19910;42.652;23.332;2023-12-20T08:05:23;94603.63;;;2.06;100.00
23176;BME280;19910;42.652;23.332;2023-12-20T08:07:50;94610.34;;;2.04;100.00
23176;BME280;19910;42.652;23.332;2023-12-20T08:10:17;94605.47;;;2.11;100.00
23176;BME280;19910;42.652;23.332;2023-12-20T08:12:44;94599.03;;;1.53;100.00
23176;BME280;19910;42.652;23.332;2023-12-20T08:15:11;94600.41;;;1.50;100.00
23176;BME280;19910;42.652;23.332;2023-12-20T08:17:40;94592.53;;;1.79;100.00
23176;BME280;19910;42.652;23.332;2023-12-20T08:20:16;94584.59;;;1.64;100.00
23176;BME280;19910;42.652;23.332;2023-12-20T08:22:51;94593.13;;;1.66;100.00
23176;BME280;19910;42.652;23.332;2023-12-20T08:25:20;94599.94;;;1.97;100.00
23176;BME280;19910;42.652;23.332;2023-12-20T08:27:50;94578.69;;;1.72;100.00
23176;BME280;19910;42.652;23.332;2023-12-20T08:30:19;94596.16;;;2.08;100.00
23176;BME280;19910;42.652;23.332;2023-12-20T08:32:50;94581.31;;;1.87;100.00
23176;BME280;19910;42.652;23.332;2023-12-20T08:35:21;94569.13;;;1.61;100.00
23176;BME280;19910;42.652;23.332;2023-12-20T08:37:54;94577.19;;;1.46;100.00
23176;BME280;19910;42.652;23.332;2023-12-20T08:40:23;94577.53;;;1.93;100.00
23176;BME280;19910;42.652;23.332;2023-12-20T08:42:52;94564.22;;;1.78;100.00
23176;BME280;19910;42.652;23.332;2023-12-20T08:45:20;94551.28;;;2.05;100.00
23176;BME280;19910;42.652;23.332;2023-12-20T08:47:50;94545.75;;;1.32;100.00
23176;BME280;19910;42.652;23.332;2023-12-20T08:50:17;94561.13;;;1.56;100.00
23176;BME280;19910;42.652;23.332;2023-12-20T08:52:45;94562.53;;;1.33;100.00
23176;BME280;19910;42.652;23.332;2023-12-20T08:55:14;94564.59;;;1.61;100.00
23176;BME280;19910;42.652;23.332;2023-12-20T08:57:45;94552.13;;;2.01;100.00
23176;BME280;19910;42.652;23.332;2023-12-20T09:00:13;94550.34;;;2.30;100.00
23176;BME280;19910;42.652;23.332;2023-12-20T09:02:42;94539.22;;;2.52;100.00
23176;BME280;19910;42.652;23.332;2023-12-20T09:05:09;94534.84;;;2.61;100.00
23176;BME280;19910;42.652;23.332;2023-12-20T09:07:35;94533.63;;;3.11;100.00
23176;BME280;19910;42.652;23.332;2023-12-20T09:10:04;94506.16;;;3.01;100.00
23176;BME280;19910;42.652;23.332;2023-12-20T09:12:32;94500.16;;;3.14;100.00
23176;BME280;19910;42.652;23.332;2023-12-20T09:14:59;94490.09;;;3.48;98.83
23176;BME280;19910;42.652;23.332;2023-12-20T09:17:31;94478.09;;;3.46;95.83
23176;BME280;19910;42.652;23.332;2023-12-20T09:20:00;94473.53;;;3.46;96.63
23176;BME280;19910;42.652;23.332;2023-12-20T09:22:27;94474.03;;;3.91;95.79
23176;BME280;19910;42.652;23.332;2023-12-20T09:24:54;94459.00;;;3.52;96.36
23176;BME280;19910;42.652;23.332;2023-12-20T09:27:21;94463.81;;;3.93;96.02
23176;BME280;19910;42.652;23.332;2023-12-20T09:29:49;94454.38;;;3.77;95.54
23176;BME280;19910;42.652;23.332;2023-12-20T09:32:16;94450.31;;;4.17;94.42
23176;BME280;19910;42.652;23.332;2023-12-20T09:34:43;94443.97;;;3.94;94.23
23176;BME280;19910;42.652;23.332;2023-12-20T09:37:10;94450.44;;;4.25;94.58
23176;BME280;19910;42.652;23.332;2023-12-20T09:39:37;94447.00;;;4.06;92.64
23176;BME280;19910;42.652;23.332;2023-12-20T09:42:05;94432.94;;;3.39;94.55
23176;BME280;19910;42.652;23.332;2023-12-20T09:44:33;94434.44;;;3.03;98.84
23176;BME280;19910;42.652;23.332;2023-12-20T09:47:03;94423.50;;;2.99;99.87
23176;BME280;19910;42.652;23.332;2023-12-20T09:49:30;94414.31;;;2.87;99.77
23176;BME280;19910;42.652;23.332;2023-12-20T09:52:00;94419.88;;;3.14;100.00
23176;BME280;19910;42.652;23.332;2023-12-20T09:54:28;94411.53;;;3.39;97.93
23176;BME280;19910;42.652;23.332;2023-12-20T09:56:56;94413.59;;;3.42;96.98
23176;BME280;19910;42.652;23.332;2023-12-20T09:59:23;94414.19;;;3.58;98.34
23176;BME280;19910;42.652;23.332;2023-12-20T10:01:50;94406.03;;;3.49;96.67
23176;BME280;19910;42.652;23.332;2023-12-20T10:04:19;94417.41;;;3.79;97.08
23176;BME280;19910;42.652;23.332;2023-12-20T10:06:46;94411.09;;;3.70;95.97
23176;BME280;19910;42.652;23.332;2023-12-20T10:09:16;94395.97;;;3.41;97.56
23176;BME280;19910;42.652;23.332;2023-12-20T10:11:45;94396.25;;;3.40;98.37
23176;BME280;19910;42.652;23.332;2023-12-20T10:14:21;94374.66;;;2.89;99.65
23176;BME280;19910;42.652;23.332;2023-12-20T10:16:49;94389.22;;;3.25;100.00
23176;BME280;19910;42.652;23.332;2023-12-20T10:19:17;94378.78;;;3.42;100.00
23176;BME280;19910;42.652;23.332;2023-12-20T10:21:45;94364.69;;;3.93;97.89
23176;BME280;19910;42.652;23.332;2023-12-20T10:24:16;94364.25;;;4.18;98.72
23176;BME280;19910;42.652;23.332;2023-12-20T10:26:43;94359.47;;;4.48;96.33
23176;BME280;19910;42.652;23.332;2023-12-20T10:29:10;94345.78;;;4.77;94.14
23176;BME280;19910;42.652;23.332;2023-12-20T10:31:37;94336.72;;;4.86;93.21
23176;BME280;19910;42.652;23.332;2023-12-20T10:34:05;94330.91;;;5.34;92.53
23176;BME280;19910;42.652;23.332;2023-12-20T10:36:32;94335.19;;;5.35;91.08
23176;BME280;19910;42.652;23.332;2023-12-20T10:39:04;94340.13;;;5.06;90.50
23176;BME280;19910;42.652;23.332;2023-12-20T10:41:33;94335.22;;;5.08;90.48
23176;BME280;19910;42.652;23.332;2023-12-20T10:44:02;94322.00;;;4.97;89.83
23176;BME280;19910;42.652;23.332;2023-12-20T10:46:30;94325.19;;;4.99;90.57
23176;BME280;19910;42.652;23.332;2023-12-20T10:48:58;94313.69;;;4.58;90.43
23176;BME280;19910;42.652;23.332;2023-12-20T10:51:25;94314.66;;;5.03;91.95
23176;BME280;19910;42.652;23.332;2023-12-20T10:53:55;94307.94;;;4.78;91.11
23176;BME280;19910;42.652;23.332;2023-12-20T10:56:23;94308.50;;;4.48;91.45
23176;BME280;19910;42.652;23.332;2023-12-20T10:58:51;94297.47;;;4.36;91.91
23176;BME280;19910;42.652;23.332;2023-12-20T11:01:18;94298.44;;;4.26;92.03
23176;BME280;19910;42.652;23.332;2023-12-20T11:03:49;94297.94;;;4.38;93.64
23176;BME280;19910;42.652;23.332;2023-12-20T11:06:26;94290.38;;;4.12;93.85
23176;BME280;19910;42.652;23.332;2023-12-20T11:09:01;94289.00;;;4.28;95.17
23176;BME280;19910;42.652;23.332;2023-12-20T11:11:45;94284.22;;;4.12;93.99
23176;BME280;19910;42.652;23.332;2023-12-20T11:14:22;94278.25;;;4.01;94.95
23176;BME280;19910;42.652;23.332;2023-12-20T11:16:50;94283.06;;;3.85;96.30
23176;BME280;19910;42.652;23.332;2023-12-20T11:19:17;94263.69;;;3.75;95.91
23176;BME280;19910;42.652;23.332;2023-12-20T11:21:45;94264.28;;;3.72;96.66
23176;BME280;19910;42.652;23.332;2023-12-20T11:24:13;94272.72;;;3.46;97.86
23176;BME280;19910;42.652;23.332;2023-12-20T11:26:46;94262.34;;;3.58;98.15
23176;BME280;19910;42.652;23.332;2023-12-20T11:29:33;94252.41;;;3.78;98.14
23176;BME280;19910;42.652;23.332;2023-12-20T11:32:02;94247.81;;;3.65;99.08
23176;BME280;19910;42.652;23.332;2023-12-20T11:34:31;94226.03;;;3.85;99.11
23176;BME280;19910;42.652;23.332;2023-12-20T11:37:02;94233.72;;;3.73;97.82
23176;BME280;19910;42.652;23.332;2023-12-20T11:39:30;94224.78;;;3.64;98.78
23176;BME280;19910;42.652;23.332;2023-12-20T11:42:04;94211.59;;;3.53;99.36
23176;BME280;19910;42.652;23.332;2023-12-20T11:44:31;94225.44;;;3.88;99.34
23176;BME280;19910;42.652;23.332;2023-12-20T11:47:03;94205.63;;;4.16;97.90
23176;BME280;19910;42.652;23.332;2023-12-20T11:49:30;94202.41;;;3.87;97.38
23176;BME280;19910;42.652;23.332;2023-12-20T11:51:57;94196.84;;;3.97;97.85
23176;BME280;19910;42.652;23.332;2023-12-20T11:54:25;94200.94;;;3.81;97.57
23176;BME280;19910;42.652;23.332;2023-12-20T11:56:53;94197.47;;;4.08;97.50
23176;BME280;19910;42.652;23.332;2023-12-20T11:59:21;94181.78;;;4.42;96.35
23176;BME280;19910;42.652;23.332;2023-12-20T12:01:48;94172.25;;;4.50;94.99
23176;BME280;19910;42.652;23.332;2023-12-20T12:04:16;94163.41;;;4.85;94.26
23176;BME280;19910;42.652;23.332;2023-12-20T12:06:44;94160.47;;;4.73;93.80
23176;BME280;19910;42.652;23.332;2023-12-20T12:09:11;94161.59;;;4.94;93.48
23176;BME280;19910;42.652;23.332;2023-12-20T12:11:38;94157.22;;;4.98;93.65
23176;BME280;19910;42.652;23.332;2023-12-20T12:14:06;94141.44;;;5.50;93.80
23176;BME280;19910;42.652;23.332;2023-12-20T12:16:35;94140.22;;;5.56;90.79
23176;BME280;19910;42.652;23.332;2023-12-20T12:19:02;94133.38;;;5.50;92.39
23176;BME280;19910;42.652;23.332;2023-12-20T12:21:29;94141.63;;;5.54;90.97
23176;BME280;19910;42.652;23.332;2023-12-20T12:24:07;94134.63;;;5.22;92.23
23176;BME280;19910;42.652;23.332;2023-12-20T12:26:34;94134.28;;;5.15;92.96
23176;BME280;19910;42.652;23.332;2023-12-20T12:29:01;94123.66;;;5.32;93.93
23176;BME280;19910;42.652;23.332;2023-12-20T12:31:28;94124.88;;;5.26;92.56
23176;BME280;19910;42.652;23.332;2023-12-20T12:33:57;94120.63;;;5.33;93.23
23176;BME280;19910;42.652;23.332;2023-12-20T12:36:24;94124.00;;;5.39;92.54
23176;BME280;19910;42.652;23.332;2023-12-20T12:38:51;94118.38;;;5.49;92.64
23176;BME280;19910;42.652;23.332;2023-12-20T12:41:18;94119.22;;;5.58;91.92
23176;BME280;19910;42.652;23.332;2023-12-20T12:43:46;94123.78;;;5.27;92.78
23176;BME280;19910;42.652;23.332;2023-12-20T12:46:25;94125.13;;;5.16;94.14
23176;BME280;19910;42.652;23.332;2023-12-20T12:48:59;94109.28;;;5.06;94.74
23176;BME280;19910;42.652;23.332;2023-12-20T12:51:26;94122.25;;;4.90;94.70
23176;BME280;19910;42.652;23.332;2023-12-20T12:53:53;94125.84;;;4.85;95.46